sensor_id;sensor_type;location;lat;lon;timestamp;P1;durP1;ratioP1;P2;durP2;ratioP2
9938;SDS011;5008;50.656;7.188;2023-03-14T03:52:06;2.33;;;1.00;;
9938;SDS011;5008;50.656;7.188;2023-03-14T03:54:34;2.37;;;1.30;;
9938;SDS011;5008;50.656;7.188;2023-03-14T03:57:01;3.20;;;1.40;;
9938;SDS011;5008;50.656;7.188;2023-03-14T03:59:28;4.93;;;1.40;;
9938;SDS011;5008;50.656;7.188;2023-03-14T04:01:55;3.70;;;1.33;;
9938;SDS011;5008;50.656;7.188;2023-03-14T04:04:22;2.87;;;1.50;;
9938;SDS011;5008;50.656;7.188;2023-03-14T04:06:49;3.63;;;1.30;;
9938;SDS011;5008;50.656;7.188;2023-03-14T04:09:17;3.10;;;1.17;;
9938;SDS011;5008;50.656;7.188;2023-03-14T04:11:44;1.90;;;0.87;;
9938;SDS011;5008;50.656;7.188;2023-03-14T04:14:10;2.47;;;0.90;;
9938;SDS011;5008;50.656;7.188;2023-03-14T04:16:37;3.93;;;1.20;;
9938;SDS011;5008;50.656;7.188;2023-03-14T04:19:04;1.83;;;1.00;;
9938;SDS011;5008;50.656;7.188;2023-03-14T04:21:31;2.57;;;0.83;;
9938;SDS011;5008;50.656;7.188;2023-03-14T04:24:12;0.93;;;0.73;;
9938;SDS011;5008;50.656;7.188;2023-03-14T04:26:40;2.40;;;0.80;;
9938;SDS011;5008;50.656;7.188;2023-03-14T04:29:07;1.23;;;0.53;;
9938;SDS011;5008;50.656;7.188;2023-03-14T04:31:34;1.20;;;0.60;;
9938;SDS011;5008;50.656;7.188;2023-03-14T04:34:01;0.57;;;0.57;;
9938;SDS011;5008;50.656;7.188;2023-03-14T04:36:28;1.10;;;0.40;;
9938;SDS011;5008;50.656;7.188;2023-03-14T04:38:54;3.33;;;0.77;;
9938;SDS011;5008;50.656;7.188;2023-03-14T04:41:21;1.13;;;0.57;;
9938;SDS011;5008;50.656;7.188;2023-03-14T04:43:49;0.60;;;0.60;;
9938;SDS011;5008;50.656;7.188;2023-03-14T04:46:16;0.67;;;0.53;;
9938;SDS011;5008;50.656;7.188;2023-03-14T04:48:43;0.93;;;0.30;;
9938;SDS011;5008;50.656;7.188;2023-03-14T04:51:10;0.87;;;0.40;;
9938;SDS011;5008;50.656;7.188;2023-03-14T04:53:37;0.80;;;0.30;;
9938;SDS011;5008;50.656;7.188;2023-03-14T04:56:04;0.97;;;0.43;;
9938;SDS011;5008;50.656;7.188;2023-03-14T04:58:31;0.47;;;0.47;;
9938;SDS011;5008;50.656;7.188;2023-03-14T05:01:02;0.50;;;0.40;;
9938;SDS011;5008;50.656;7.188;2023-03-14T05:03:29;1.00;;;0.40;;
9938;SDS011;5008;50.656;7.188;2023-03-14T05:05:56;1.80;;;0.60;;
9938;SDS011;5008;50.656;7.188;2023-03-14T05:08:23;0.27;;;0.27;;
9938;SDS011;5008;50.656;7.188;2023-03-14T05:10:54;0.87;;;0.37;;
9938;SDS011;5008;50.656;7.188;2023-03-14T05:13:30;0.20;;;0.20;;
9938;SDS011;5008;50.656;7.188;2023-03-14T05:16:04;0.37;;;0.20;;
9938;SDS011;5008;50.656;7.188;2023-03-14T05:18:31;0.90;;;0.40;;
9938;SDS011;5008;50.656;7.188;2023-03-14T05:20:58;0.47;;;0.20;;
9938;SDS011;5008;50.656;7.188;2023-03-14T05:23:28;0.33;;;0.30;;
9938;SDS011;5008;50.656;7.188;2023-03-14T05:25:55;0.30;;;0.30;;
9938;SDS011;5008;50.656;7.188;2023-03-14T05:28:22;0.63;;;0.10;;
9938;SDS011;5008;50.656;7.188;2023-03-14T05:30:49;0.73;;;0.23;;
9938;SDS011;5008;50.656;7.188;2023-03-14T05:33:17;1.93;;;0.30;;
9938;SDS011;5008;50.656;7.188;2023-03-14T05:38:31;0.87;;;0.40;;
9938;SDS011;5008;50.656;7.188;2023-03-14T05:40:58;0.10;;;0.10;;
9938;SDS011;5008;50.656;7.188;2023-03-14T05:43:25;0.50;;;0.20;;
9938;SDS011;5008;50.656;7.188;2023-03-14T05:45:52;0.10;;;0.10;;
9938;SDS011;5008;50.656;7.188;2023-03-14T05:48:20;0.40;;;0.10;;
9938;SDS011;5008;50.656;7.188;2023-03-14T05:50:47;0.30;;;0.20;;
9938;SDS011;5008;50.656;7.188;2023-03-14T05:53:28;0.10;;;0.10;;
9938;SDS011;5008;50.656;7.188;2023-03-14T05:55:55;0.33;;;0.13;;
9938;SDS011;5008;50.656;7.188;2023-03-14T05:58:23;0.20;;;0.20;;
9938;SDS011;5008;50.656;7.188;2023-03-14T06:00:50;0.20;;;0.20;;
9938;SDS011;5008;50.656;7.188;2023-03-14T06:03:17;0.60;;;0.10;;
9938;SDS011;5008;50.656;7.188;2023-03-14T06:05:45;0.37;;;0.23;;
9938;SDS011;5008;50.656;7.188;2023-03-14T06:08:12;0.10;;;0.10;;
9938;SDS011;5008;50.656;7.188;2023-03-14T06:10:39;0.47;;;0.20;;
9938;SDS011;5008;50.656;7.188;2023-03-14T06:13:07;0.20;;;0.13;;
9938;SDS011;5008;50.656;7.188;2023-03-14T06:15:33;0.27;;;0.10;;
9938;SDS011;5008;50.656;7.188;2023-03-14T06:18:03;0.10;;;0.10;;
9938;SDS011;5008;50.656;7.188;2023-03-14T06:20:36;0.27;;;0.20;;
9938;SDS011;5008;50.656;7.188;2023-03-14T06:23:05;0.50;;;0.30;;
9938;SDS011;5008;50.656;7.188;2023-03-14T06:25:41;0.67;;;0.20;;
9938;SDS011;5008;50.656;7.188;2023-03-14T06:28:07;0.10;;;0.10;;
9938;SDS011;5008;50.656;7.188;2023-03-14T06:30:34;1.50;;;0.17;;
9938;SDS011;5008;50.656;7.188;2023-03-14T06:33:18;0.27;;;0.17;;
9938;SDS011;5008;50.656;7.188;2023-03-14T06:35:45;0.10;;;0.10;;
9938;SDS011;5008;50.656;7.188;2023-03-14T06:38:13;0.73;;;0.20;;
9938;SDS011;5008;50.656;7.188;2023-03-14T06:40:40;0.40;;;0.10;;
9938;SDS011;5008;50.656;7.188;2023-03-14T06:43:15;0.10;;;0.10;;
9938;SDS011;5008;50.656;7.188;2023-03-14T06:45:41;0.30;;;0.30;;
9938;SDS011;5008;50.656;7.188;2023-03-14T06:48:08;0.97;;;0.40;;
9938;SDS011;5008;50.656;7.188;2023-03-14T06:53:27;0.67;;;0.50;;
9938;SDS011;5008;50.656;7.188;2023-03-14T06:55:54;0.20;;;0.20;;
9938;SDS011;5008;50.656;7.188;2023-03-14T06:58:20;0.30;;;0.30;;
9938;SDS011;5008;50.656;7.188;2023-03-14T07:00:47;0.50;;;0.20;;
9938;SDS011;5008;50.656;7.188;2023-03-14T07:03:14;0.30;;;0.30;;
9938;SDS011;5008;50.656;7.188;2023-03-14T07:05:41;0.10;;;0.10;;
9938;SDS011;5008;50.656;7.188;2023-03-14T07:08:10;0.10;;;0.10;;
9938;SDS011;5008;50.656;7.188;2023-03-14T07:10:39;0.40;;;0.20;;
9938;SDS011;5008;50.656;7.188;2023-03-14T07:13:06;1.07;;;0.20;;
9938;SDS011;5008;50.656;7.188;2023-03-14T07:15:33;0.30;;;0.10;;
9938;SDS011;5008;50.656;7.188;2023-03-14T07:18:07;0.17;;;0.10;;
9938;SDS011;5008;50.656;7.188;2023-03-14T07:20:34;0.10;;;0.10;;
9938;SDS011;5008;50.656;7.188;2023-03-14T07:23:01;0.20;;;0.20;;
9938;SDS011;5008;50.656;7.188;2023-03-14T07:28:15;0.00;;;0.00;;
9938;SDS011;5008;50.656;7.188;2023-03-14T07:30:42;0.10;;;0.10;;
9938;SDS011;5008;50.656;7.188;2023-03-14T07:33:15;0.47;;;0.10;;
9938;SDS011;5008;50.656;7.188;2023-03-14T07:35:42;0.27;;;0.20;;
9938;SDS011;5008;50.656;7.188;2023-03-14T07:38:08;0.03;;;0.00;;
9938;SDS011;5008;50.656;7.188;2023-03-14T07:40:35;0.10;;;0.10;;
9938;SDS011;5008;50.656;7.188;2023-03-14T07:43:03;0.23;;;0.10;;
9938;SDS011;5008;50.656;7.188;2023-03-14T07:45:30;0.10;;;0.10;;
9938;SDS011;5008;50.656;7.188;2023-03-14T07:47:57;0.20;;;0.13;;
9938;SDS011;5008;50.656;7.188;2023-03-14T07:50:24;0.20;;;0.20;;
9938;SDS011;5008;50.656;7.188;2023-03-14T07:52:53;0.27;;;0.20;;
9938;SDS011;5008;50.656;7.188;2023-03-14T07:55:20;0.20;;;0.10;;
9938;SDS011;5008;50.656;7.188;2023-03-14T07:57:47;0.20;;;0.10;;
9938;SDS011;5008;50.656;7.188;2023-03-14T08:00:15;0.17;;;0.17;;
9938;SDS011;5008;50.656;7.188;2023-03-14T08:02:42;0.50;;;0.10;;
9938;SDS011;5008;50.656;7.188;2023-03-14T08:05:27;0.10;;;0.10;;
9938;SDS011;5008;50.656;7.188;2023-03-14T08:07:54;0.00;;;0.00;;
9938;SDS011;5008;50.656;7.188;2023-03-14T08:10:21;0.43;;;0.10;;
9938;SDS011;5008;50.656;7.188;2023-03-14T08:12:48;0.67;;;0.20;;
9938;SDS011;5008;50.656;7.188;2023-03-14T08:15:16;0.17;;;0.17;;
9938;SDS011;5008;50.656;7.188;2023-03-14T08:17:43;0.40;;;0.30;;
9938;SDS011;5008;50.656;7.188;2023-03-14T08:20:10;0.40;;;0.20;;
9938;SDS011;5008;50.656;7.188;2023-03-14T08:22:40;0.00;;;0.00;;
9938;SDS011;5008;50.656;7.188;2023-03-14T08:25:09;0.03;;;0.03;;
9938;SDS011;5008;50.656;7.188;2023-03-14T08:27:36;0.00;;;0.00;;
9938;SDS011;5008;50.656;7.188;2023-03-14T08:30:04;0.10;;;0.10;;
9938;SDS011;5008;50.656;7.188;2023-03-14T08:32:33;0.00;;;0.00;;
9938;SDS011;5008;50.656;7.188;2023-03-14T08:35:00;0.70;;;0.37;;
9938;SDS011;5008;50.656;7.188;2023-03-14T08:37:30;0.53;;;0.10;;
9938;SDS011;5008;50.656;7.188;2023-03-14T08:39:57;0.00;;;0.00;;
9938;SDS011;5008;50.656;7.188;2023-03-14T08:42:25;0.27;;;0.17;;
9938;SDS011;5008;50.656;7.188;2023-03-14T08:44:51;1.40;;;0.20;;
9938;SDS011;5008;50.656;7.188;2023-03-14T08:47:18;0.20;;;0.10;;
9938;SDS011;5008;50.656;7.188;2023-03-14T08:49:46;0.20;;;0.20;;
9938;SDS011;5008;50.656;7.188;2023-03-14T08:52:13;0.10;;;0.10;;
9938;SDS011;5008;50.656;7.188;2023-03-14T08:54:43;0.30;;;0.10;;
9938;SDS011;5008;50.656;7.188;2023-03-14T08:57:12;0.13;;;0.00;;
9938;SDS011;5008;50.656;7.188;2023-03-14T08:59:39;0.40;;;0.10;;
9938;SDS011;5008;50.656;7.188;2023-03-14T09:02:08;0.10;;;0.03;;
9938;SDS011;5008;50.656;7.188;2023-03-14T09:04:36;0.00;;;0.00;;
9938;SDS011;5008;50.656;7.188;2023-03-14T09:07:04;0.10;;;0.10;;
9938;SDS011;5008;50.656;7.188;2023-03-14T09:09:31;0.53;;;0.20;;
9938;SDS011;5008;50.656;7.188;2023-03-14T09:11:58;0.30;;;0.17;;
9938;SDS011;5008;50.656;7.188;2023-03-14T09:14:25;0.20;;;0.20;;
9938;SDS011;5008;50.656;7.188;2023-03-14T09:16:53;0.50;;;0.20;;
9938;SDS011;5008;50.656;7.188;2023-03-14T09:19:20;0.20;;;0.10;;
9938;SDS011;5008;50.656;7.188;2023-03-14T09:21:47;0.10;;;0.10;;
9938;SDS011;5008;50.656;7.188;2023-03-14T09:24:15;0.00;;;0.00;;
9938;SDS011;5008;50.656;7.188;2023-03-14T09:26:42;0.10;;;0.10;;
9938;SDS011;5008;50.656;7.188;2023-03-14T09:29:09;0.10;;;0.10;;
9938;SDS011;5008;50.656;7.188;2023-03-14T09:31:36;0.03;;;0.00;;
9938;SDS011;5008;50.656;7.188;2023-03-14T09:34:03;0.30;;;0.20;;
9938;SDS011;5008;50.656;7.188;2023-03-14T09:36:32;0.20;;;0.10;;
9938;SDS011;5008;50.656;7.188;2023-03-14T09:38:59;0.00;;;0.00;;
9938;SDS011;5008;50.656;7.188;2023-03-14T09:41:27;0.00;;;0.00;;
9938;SDS011;5008;50.656;7.188;2023-03-14T09:43:59;0.10;;;0.10;;
9938;SDS011;5008;50.656;7.188;2023-03-14T09:46:30;0.30;;;0.20;;
9938;SDS011;5008;50.656;7.188;2023-03-14T09:48:59;0.50;;;0.30;;
9938;SDS011;5008;50.656;7.188;2023-03-14T09:51:26;0.10;;;0.10;;
9938;SDS011;5008;50.656;7.188;2023-03-14T09:53:54;0.33;;;0.27;;
9938;SDS011;5008;50.656;7.188;2023-03-14T09:56:21;0.27;;;0.20;;
9938;SDS011;5008;50.656;7.188;2023-03-14T09:58:53;0.10;;;0.10;;
9938;SDS011;5008;50.656;7.188;2023-03-14T10:01:22;1.00;;;0.27;;
9938;SDS011;5008;50.656;7.188;2023-03-14T10:03:53;0.27;;;0.20;;
9938;SDS011;5008;50.656;7.188;2023-03-14T10:06:22;0.47;;;0.20;;
9938;SDS011;5008;50.656;7.188;2023-03-14T10:08:51;0.63;;;0.20;;
9938;SDS011;5008;50.656;7.188;2023-03-14T10:11:19;0.30;;;0.30;;
9938;SDS011;5008;50.656;7.188;2023-03-14T10:14:04;0.30;;;0.30;;
9938;SDS011;5008;50.656;7.188;2023-03-14T10:16:33;1.70;;;0.40;;
9938;SDS011;5008;50.656;7.188;2023-03-14T10:19:02;0.50;;;0.50;;
9938;SDS011;5008;50.656;7.188;2023-03-14T10:21:35;0.50;;;0.50;;
9938;SDS011;5008;50.656;7.188;2023-03-14T10:24:10;0.70;;;0.40;;
9938;SDS011;5008;50.656;7.188;2023-03-14T10:26:47;0.30;;;0.30;;
9938;SDS011;5008;50.656;7.188;2023-03-14T10:29:16;0.30;;;0.30;;
9938;SDS011;5008;50.656;7.188;2023-03-14T10:31:48;1.53;;;0.47;;
9938;SDS011;5008;50.656;7.188;2023-03-14T10:34:21;0.77;;;0.40;;
9938;SDS011;5008;50.656;7.188;2023-03-14T10:36:53;0.60;;;0.30;;
9938;SDS011;5008;50.656;7.188;2023-03-14T10:39:26;0.20;;;0.20;;
9938;SDS011;5008;50.656;7.188;2023-03-14T10:41:55;0.23;;;0.23;;
9938;SDS011;5008;50.656;7.188;2023-03-14T10:44:31;0.30;;;0.30;;
9938;SDS011;5008;50.656;7.188;2023-03-14T10:47:00;0.93;;;0.37;;
9938;SDS011;5008;50.656;7.188;2023-03-14T10:49:29;0.20;;;0.20;;
9938;SDS011;5008;50.656;7.188;2023-03-14T10:52:01;0.50;;;0.50;;
9938;SDS011;5008;50.656;7.188;2023-03-14T10:54:38;0.80;;;0.80;;
9938;SDS011;5008;50.656;7.188;2023-03-14T10:57:05;0.63;;;0.60;;
9938;SDS011;5008;50.656;7.188;2023-03-14T10:59:35;0.97;;;0.90;;
9938;SDS011;5008;50.656;7.188;2023-03-14T11:02:03;1.23;;;1.03;;
9938;SDS011;5008;50.656;7.188;2023-03-14T11:04:45;0.80;;;0.80;;
9938;SDS011;5008;50.656;7.188;2023-03-14T11:07:22;1.07;;;0.90;;
9938;SDS011;5008;50.656;7.188;2023-03-14T11:09:56;0.60;;;0.60;;
9938;SDS011;5008;50.656;7.188;2023-03-14T11:12:30;1.17;;;1.07;;
9938;SDS011;5008;50.656;7.188;2023-03-14T11:15:09;0.70;;;0.70;;
9938;SDS011;5008;50.656;7.188;2023-03-14T11:17:41;0.77;;;0.73;;
9938;SDS011;5008;50.656;7.188;2023-03-14T11:20:28;0.70;;;0.70;;
9938;SDS011;5008;50.656;7.188;2023-03-14T11:23:03;1.30;;;0.67;;
9938;SDS011;5008;50.656;7.188;2023-03-14T11:25:36;1.07;;;1.03;;
9938;SDS011;5008;50.656;7.188;2023-03-14T11:28:14;0.93;;;0.90;;
9938;SDS011;5008;50.656;7.188;2023-03-14T11:30:48;1.77;;;0.93;;
9938;SDS011;5008;50.656;7.188;2023-03-14T11:33:18;0.80;;;0.80;;
9938;SDS011;5008;50.656;7.188;2023-03-14T11:35:52;2.03;;;1.30;;
9938;SDS011;5008;50.656;7.188;2023-03-14T11:38:29;1.53;;;1.27;;
9938;SDS011;5008;50.656;7.188;2023-03-14T11:41:00;0.93;;;0.93;;
9938;SDS011;5008;50.656;7.188;2023-03-14T11:43:29;1.10;;;1.00;;
9938;SDS011;5008;50.656;7.188;2023-03-14T11:46:03;0.70;;;0.70;;
9938;SDS011;5008;50.656;7.188;2023-03-14T11:48:37;0.90;;;0.90;;
9938;SDS011;5008;50.656;7.188;2023-03-14T11:51:09;1.07;;;0.93;;
9938;SDS011;5008;50.656;7.188;2023-03-14T11:53:49;0.70;;;0.70;;
9938;SDS011;5008;50.656;7.188;2023-03-14T11:56:24;0.90;;;0.90;;
9938;SDS011;5008;50.656;7.188;2023-03-14T11:58:57;0.80;;;0.80;;
9938;SDS011;5008;50.656;7.188;2023-03-14T12:01:31;1.50;;;1.20;;
9938;SDS011;5008;50.656;7.188;2023-03-14T12:04:11;1.60;;;1.50;;
9938;SDS011;5008;50.656;7.188;2023-03-14T12:06:46;1.23;;;1.10;;
9938;SDS011;5008;50.656;7.188;2023-03-14T12:09:15;1.63;;;0.90;;
9938;SDS011;5008;50.656;7.188;2023-03-14T12:11:44;1.50;;;1.10;;
9938;SDS011;5008;50.656;7.188;2023-03-14T12:14:18;1.03;;;0.80;;
9938;SDS011;5008;50.656;7.188;2023-03-14T12:16:49;1.80;;;1.00;;
9938;SDS011;5008;50.656;7.188;2023-03-14T12:19:25;0.70;;;0.70;;
9938;SDS011;5008;50.656;7.188;2023-03-14T12:22:01;0.87;;;0.73;;
9938;SDS011;5008;50.656;7.188;2023-03-14T12:24:51;1.30;;;0.60;;
9938;SDS011;5008;50.656;7.188;2023-03-14T12:27:43;1.03;;;0.80;;
9938;SDS011;5008;50.656;7.188;2023-03-14T12:30:16;1.63;;;0.57;;
9938;SDS011;5008;50.656;7.188;2023-03-14T12:36:01;0.10;;;0.10;;
9938;SDS011;5008;50.656;7.188;2023-03-14T12:38:47;0.20;;;0.20;;
9938;SDS011;5008;50.656;7.188;2023-03-14T12:41:28;0.70;;;0.30;;
9938;SDS011;5008;50.656;7.188;2023-03-14T12:50:14;0.70;;;0.70;;
9938;SDS011;5008;50.656;7.188;2023-03-14T12:52:51;0.47;;;0.40;;
9938;SDS011;5008;50.656;7.188;2023-03-14T12:55:39;0.93;;;0.60;;
9938;SDS011;5008;50.656;7.188;2023-03-14T12:58:13;1.50;;;0.80;;
9938;SDS011;5008;50.656;7.188;2023-03-14T13:00:55;1.27;;;0.90;;
9938;SDS011;5008;50.656;7.188;2023-03-14T13:03:25;1.50;;;0.90;;
9938;SDS011;5008;50.656;7.188;2023-03-14T13:06:02;1.70;;;1.03;;
9938;SDS011;5008;50.656;7.188;2023-03-14T13:08:35;0.93;;;0.93;;
9938;SDS011;5008;50.656;7.188;2023-03-14T13:11:05;2.73;;;0.80;;
9938;SDS011;5008;50.656;7.188;2023-03-14T13:13:36;0.83;;;0.83;;
9938;SDS011;5008;50.656;7.188;2023-03-14T13:16:12;0.93;;;0.83;;
9938;SDS011;5008;50.656;7.188;2023-03-14T13:18:42;1.27;;;1.17;;
9938;SDS011;5008;50.656;7.188;2023-03-14T13:21:12;1.63;;;1.20;;
9938;SDS011;5008;50.656;7.188;2023-03-14T13:23:53;1.07;;;0.97;;
9938;SDS011;5008;50.656;7.188;2023-03-14T13:26:25;1.60;;;1.17;;
9938;SDS011;5008;50.656;7.188;2023-03-14T13:28:58;2.80;;;1.73;;
9938;SDS011;5008;50.656;7.188;2023-03-14T13:31:25;1.50;;;1.40;;
9938;SDS011;5008;50.656;7.188;2023-03-14T13:33:56;1.57;;;1.00;;
9938;SDS011;5008;50.656;7.188;2023-03-14T13:36:26;2.70;;;1.20;;
9938;SDS011;5008;50.656;7.188;2023-03-14T13:38:58;1.50;;;1.13;;
9938;SDS011;5008;50.656;7.188;2023-03-14T13:41:30;2.10;;;1.13;;
9938;SDS011;5008;50.656;7.188;2023-03-14T13:44:02;1.20;;;1.10;;
9938;SDS011;5008;50.656;7.188;2023-03-14T13:46:32;2.27;;;1.77;;
9938;SDS011;5008;50.656;7.188;2023-03-14T13:49:01;3.43;;;1.40;;
9938;SDS011;5008;50.656;7.188;2023-03-14T13:51:29;2.13;;;1.30;;
9938;SDS011;5008;50.656;7.188;2023-03-14T13:54:00;3.33;;;1.40;;
9938;SDS011;5008;50.656;7.188;2023-03-14T13:56:28;1.70;;;1.60;;
9938;SDS011;5008;50.656;7.188;2023-03-14T13:58:56;4.17;;;1.90;;
9938;SDS011;5008;50.656;7.188;2023-03-14T14:01:24;1.50;;;1.40;;
9938;SDS011;5008;50.656;7.188;2023-03-14T14:03:54;3.10;;;1.23;;
9938;SDS011;5008;50.656;7.188;2023-03-14T14:06:27;1.87;;;1.30;;
9938;SDS011;5008;50.656;7.188;2023-03-14T14:08:56;2.10;;;1.30;;
9938;SDS011;5008;50.656;7.188;2023-03-14T14:11:31;1.40;;;1.30;;
9938;SDS011;5008;50.656;7.188;2023-03-14T14:14:08;2.43;;;1.50;;
9938;SDS011;5008;50.656;7.188;2023-03-14T14:16:38;2.20;;;1.30;;
9938;SDS011;5008;50.656;7.188;2023-03-14T14:19:05;2.73;;;1.67;;
9938;SDS011;5008;50.656;7.188;2023-03-14T14:21:32;1.53;;;1.23;;
9938;SDS011;5008;50.656;7.188;2023-03-14T14:23:59;2.70;;;1.30;;
9938;SDS011;5008;50.656;7.188;2023-03-14T14:26:27;1.50;;;1.40;;
9938;SDS011;5008;50.656;7.188;2023-03-14T14:28:59;1.90;;;1.50;;
9938;SDS011;5008;50.656;7.188;2023-03-14T14:31:27;3.00;;;1.60;;
9938;SDS011;5008;50.656;7.188;2023-03-14T14:34:00;2.63;;;1.57;;
9938;SDS011;5008;50.656;7.188;2023-03-14T14:36:36;3.07;;;1.27;;
9938;SDS011;5008;50.656;7.188;2023-03-14T14:39:05;2.40;;;1.20;;
9938;SDS011;5008;50.656;7.188;2023-03-14T14:41:43;2.63;;;1.00;;
9938;SDS011;5008;50.656;7.188;2023-03-14T14:44:11;1.90;;;1.13;;
9938;SDS011;5008;50.656;7.188;2023-03-14T14:46:39;2.70;;;1.23;;
9938;SDS011;5008;50.656;7.188;2023-03-14T14:49:09;2.77;;;1.23;;
9938;SDS011;5008;50.656;7.188;2023-03-14T14:51:40;4.30;;;1.30;;
9938;SDS011;5008;50.656;7.188;2023-03-14T14:54:10;5.83;;;1.57;;
9938;SDS011;5008;50.656;7.188;2023-03-14T14:56:39;3.23;;;1.40;;
9938;SDS011;5008;50.656;7.188;2023-03-14T14:59:17;4.00;;;1.57;;
9938;SDS011;5008;50.656;7.188;2023-03-14T15:01:50;6.37;;;1.53;;
9938;SDS011;5008;50.656;7.188;2023-03-14T15:04:22;8.60;;;1.57;;
9938;SDS011;5008;50.656;7.188;2023-03-14T15:06:49;5.47;;;1.90;;
9938;SDS011;5008;50.656;7.188;2023-03-14T15:09:24;2.33;;;1.37;;
9938;SDS011;5008;50.656;7.188;2023-03-14T15:11:51;4.87;;;1.23;;
9938;SDS011;5008;50.656;7.188;2023-03-14T15:14:19;3.80;;;1.27;;
9938;SDS011;5008;50.656;7.188;2023-03-14T15:16:47;2.50;;;1.23;;
9938;SDS011;5008;50.656;7.188;2023-03-14T15:19:16;3.03;;;1.13;;
9938;SDS011;5008;50.656;7.188;2023-03-14T15:21:46;6.53;;;1.60;;
9938;SDS011;5008;50.656;7.188;2023-03-14T15:24:13;2.43;;;1.23;;
9938;SDS011;5008;50.656;7.188;2023-03-14T15:26:40;6.97;;;1.73;;
9938;SDS011;5008;50.656;7.188;2023-03-14T15:29:12;4.77;;;1.80;;
9938;SDS011;5008;50.656;7.188;2023-03-14T15:31:41;5.37;;;1.97;;
9938;SDS011;5008;50.656;7.188;2023-03-14T15:34:08;5.90;;;2.07;;
9938;SDS011;5008;50.656;7.188;2023-03-14T15:36:36;6.97;;;2.27;;
9938;SDS011;5008;50.656;7.188;2023-03-14T15:39:05;4.37;;;1.73;;
9938;SDS011;5008;50.656;7.188;2023-03-14T15:41:32;8.40;;;1.63;;
9938;SDS011;5008;50.656;7.188;2023-03-14T15:44:14;5.10;;;1.90;;
9938;SDS011;5008;50.656;7.188;2023-03-14T15:46:41;4.80;;;2.00;;
9938;SDS011;5008;50.656;7.188;2023-03-14T15:49:08;3.93;;;1.60;;
9938;SDS011;5008;50.656;7.188;2023-03-14T15:51:35;4.43;;;1.90;;
9938;SDS011;5008;50.656;7.188;2023-03-14T15:54:01;5.80;;;1.30;;
9938;SDS011;5008;50.656;7.188;2023-03-14T15:56:28;3.97;;;1.50;;
9938;SDS011;5008;50.656;7.188;2023-03-14T15:58:57;2.67;;;1.20;;
9938;SDS011;5008;50.656;7.188;2023-03-14T16:01:40;3.33;;;1.10;;
9938;SDS011;5008;50.656;7.188;2023-03-14T16:04:06;2.47;;;1.27;;
9938;SDS011;5008;50.656;7.188;2023-03-14T16:06:33;3.67;;;1.37;;
9938;SDS011;5008;50.656;7.188;2023-03-14T16:09:01;2.20;;;1.33;;
9938;SDS011;5008;50.656;7.188;2023-03-14T16:11:29;1.97;;;1.00;;
9938;SDS011;5008;50.656;7.188;2023-03-14T16:13:56;3.77;;;1.47;;
9938;SDS011;5008;50.656;7.188;2023-03-14T16:16:23;1.37;;;1.23;;
9938;SDS011;5008;50.656;7.188;2023-03-14T16:18:58;2.37;;;1.20;;
9938;SDS011;5008;50.656;7.188;2023-03-14T16:21:25;3.37;;;1.40;;
9938;SDS011;5008;50.656;7.188;2023-03-14T16:26:31;2.17;;;1.27;;
9938;SDS011;5008;50.656;7.188;2023-03-14T16:28:59;2.97;;;1.27;;
9938;SDS011;5008;50.656;7.188;2023-03-14T16:31:26;1.70;;;1.07;;
9938;SDS011;5008;50.656;7.188;2023-03-14T16:33:53;1.87;;;1.27;;
9938;SDS011;5008;50.656;7.188;2023-03-14T16:36:21;2.07;;;1.27;;
9938;SDS011;5008;50.656;7.188;2023-03-14T16:38:50;2.80;;;1.30;;
9938;SDS011;5008;50.656;7.188;2023-03-14T16:41:18;4.53;;;1.27;;
9938;SDS011;5008;50.656;7.188;2023-03-14T16:43:47;2.73;;;1.80;;
9938;SDS011;5008;50.656;7.188;2023-03-14T16:46:18;2.33;;;1.30;;
9938;SDS011;5008;50.656;7.188;2023-03-14T16:48:46;2.63;;;1.47;;
9938;SDS011;5008;50.656;7.188;2023-03-14T16:51:13;3.03;;;1.63;;
9938;SDS011;5008;50.656;7.188;2023-03-14T16:53:45;4.30;;;1.60;;
9938;SDS011;5008;50.656;7.188;2023-03-14T16:56:12;2.23;;;1.70;;
9938;SDS011;5008;50.656;7.188;2023-03-14T16:58:40;5.07;;;1.93;;
9938;SDS011;5008;50.656;7.188;2023-03-14T17:01:07;3.23;;;1.87;;
9938;SDS011;5008;50.656;7.188;2023-03-14T17:03:35;3.50;;;1.83;;
9938;SDS011;5008;50.656;7.188;2023-03-14T17:06:03;3.50;;;2.00;;
9938;SDS011;5008;50.656;7.188;2023-03-14T17:08:30;4.70;;;2.07;;
9938;SDS011;5008;50.656;7.188;2023-03-14T17:10:58;3.93;;;2.20;;
9938;SDS011;5008;50.656;7.188;2023-03-14T17:13:25;4.03;;;2.40;;
9938;SDS011;5008;50.656;7.188;2023-03-14T17:15:52;2.93;;;2.07;;
9938;SDS011;5008;50.656;7.188;2023-03-14T17:18:20;4.07;;;1.87;;
9938;SDS011;5008;50.656;7.188;2023-03-14T17:20:48;5.57;;;1.97;;
9938;SDS011;5008;50.656;7.188;2023-03-14T17:23:16;2.57;;;1.77;;
9938;SDS011;5008;50.656;7.188;2023-03-14T17:25:43;3.70;;;2.13;;
9938;SDS011;5008;50.656;7.188;2023-03-14T17:28:14;3.77;;;1.77;;
9938;SDS011;5008;50.656;7.188;2023-03-14T17:30:41;5.83;;;2.50;;
9938;SDS011;5008;50.656;7.188;2023-03-14T17:33:08;5.83;;;2.40;;
9938;SDS011;5008;50.656;7.188;2023-03-14T17:35:45;4.10;;;1.97;;
9938;SDS011;5008;50.656;7.188;2023-03-14T17:38:12;4.73;;;2.30;;
9938;SDS011;5008;50.656;7.188;2023-03-14T17:40:38;5.87;;;2.50;;
9938;SDS011;5008;50.656;7.188;2023-03-14T17:43:05;4.20;;;2.30;;
9938;SDS011;5008;50.656;7.188;2023-03-14T17:45:34;6.33;;;2.70;;
9938;SDS011;5008;50.656;7.188;2023-03-14T17:48:01;3.90;;;2.27;;
9938;SDS011;5008;50.656;7.188;2023-03-14T17:50:29;6.90;;;2.40;;
9938;SDS011;5008;50.656;7.188;2023-03-14T17:52:56;8.07;;;2.73;;
9938;SDS011;5008;50.656;7.188;2023-03-14T17:55:23;9.13;;;2.50;;
9938;SDS011;5008;50.656;7.188;2023-03-14T17:57:51;7.10;;;2.20;;
9938;SDS011;5008;50.656;7.188;2023-03-14T18:00:18;8.60;;;2.77;;
9938;SDS011;5008;50.656;7.188;2023-03-14T18:03:03;7.63;;;2.30;;
9938;SDS011;5008;50.656;7.188;2023-03-14T18:05:31;9.40;;;2.10;;
9938;SDS011;5008;50.656;7.188;2023-03-14T18:07:58;8.67;;;2.30;;
9938;SDS011;5008;50.656;7.188;2023-03-14T18:10:32;6.77;;;2.27;;
9938;SDS011;5008;50.656;7.188;2023-03-14T18:13:04;12.00;;;2.67;;
9938;SDS011;5008;50.656;7.188;2023-03-14T18:15:33;7.10;;;2.13;;
9938;SDS011;5008;50.656;7.188;2023-03-14T18:18:00;7.50;;;2.30;;
9938;SDS011;5008;50.656;7.188;2023-03-14T18:20:28;6.60;;;2.00;;
9938;SDS011;5008;50.656;7.188;2023-03-14T18:22:55;5.97;;;2.10;;
9938;SDS011;5008;50.656;7.188;2023-03-14T18:25:24;9.17;;;2.63;;
9938;SDS011;5008;50.656;7.188;2023-03-14T18:27:52;5.93;;;2.10;;
9938;SDS011;5008;50.656;7.188;2023-03-14T18:30:19;6.67;;;4.43;;
9938;SDS011;5008;50.656;7.188;2023-03-14T18:32:47;4.00;;;3.57;;
9938;SDS011;5008;50.656;7.188;2023-03-14T18:35:15;4.33;;;2.27;;
9938;SDS011;5008;50.656;7.188;2023-03-14T18:37:55;11.33;;;10.20;;
9938;SDS011;5008;50.656;7.188;2023-03-14T18:41:02;17.30;;;13.73;;
9938;SDS011;5008;50.656;7.188;2023-03-14T18:43:29;5.83;;;3.13;;
9938;SDS011;5008;50.656;7.188;2023-03-14T18:45:57;5.80;;;2.53;;
9938;SDS011;5008;50.656;7.188;2023-03-14T18:48:26;5.50;;;4.40;;
9938;SDS011;5008;50.656;7.188;2023-03-14T18:50:54;3.50;;;3.20;;
9938;SDS011;5008;50.656;7.188;2023-03-14T18:53:24;6.50;;;2.83;;
9938;SDS011;5008;50.656;7.188;2023-03-14T18:55:55;7.90;;;4.60;;
9938;SDS011;5008;50.656;7.188;2023-03-14T18:58:22;8.27;;;4.20;;
9938;SDS011;5008;50.656;7.188;2023-03-14T19:00:54;3.53;;;2.20;;
9938;SDS011;5008;50.656;7.188;2023-03-14T19:03:22;10.93;;;9.77;;
9938;SDS011;5008;50.656;7.188;2023-03-14T19:05:51;6.67;;;2.27;;
9938;SDS011;5008;50.656;7.188;2023-03-14T19:08:18;4.90;;;2.17;;
9938;SDS011;5008;50.656;7.188;2023-03-14T19:10:49;9.00;;;6.37;;
9938;SDS011;5008;50.656;7.188;2023-03-14T19:13:36;6.33;;;4.10;;
9938;SDS011;5008;50.656;7.188;2023-03-14T19:16:05;4.57;;;2.50;;
9938;SDS011;5008;50.656;7.188;2023-03-14T19:18:36;5.83;;;2.30;;
9938;SDS011;5008;50.656;7.188;2023-03-14T19:21:08;4.20;;;2.03;;
9938;SDS011;5008;50.656;7.188;2023-03-14T19:23:37;8.13;;;2.40;;
9938;SDS011;5008;50.656;7.188;2023-03-14T19:26:06;4.23;;;2.03;;
9938;SDS011;5008;50.656;7.188;2023-03-14T19:28:34;6.97;;;2.47;;
9938;SDS011;5008;50.656;7.188;2023-03-14T19:31:02;5.00;;;1.97;;
9938;SDS011;5008;50.656;7.188;2023-03-14T19:33:30;5.73;;;2.17;;
9938;SDS011;5008;50.656;7.188;2023-03-14T19:35:57;5.07;;;2.20;;
9938;SDS011;5008;50.656;7.188;2023-03-14T19:38:26;4.70;;;2.30;;
9938;SDS011;5008;50.656;7.188;2023-03-14T19:40:54;5.83;;;2.90;;
9938;SDS011;5008;50.656;7.188;2023-03-14T19:43:24;7.03;;;2.43;;